sensor_id;sensor_type;location;lat;lon;timestamp;temperature;humidity
22145;DHT22;11238;48.730;11.566;2022-08-05T00:01:24;23.20;77.70
22145;DHT22;11238;48.730;11.566;2022-08-05T00:03:50;23.10;76.90
22145;DHT22;11238;48.730;11.566;2022-08-05T00:06:17;23.10;76.80
22145;DHT22;11238;48.730;11.566;2022-08-05T00:08:43;23.10;77.70
22145;DHT22;11238;48.730;11.566;2022-08-05T00:11:11;23.10;78.10
22145;DHT22;11238;48.730;11.566;2022-08-05T00:13:40;23.00;76.70
22145;DHT22;11238;48.730;11.566;2022-08-05T00:16:11;23.00;78.10
22145;DHT22;11238;48.730;11.566;2022-08-05T00:18:38;22.90;77.50
22145;DHT22;11238;48.730;11.566;2022-08-05T00:21:05;22.90;78.20
22145;DHT22;11238;48.730;11.566;2022-08-05T00:23:31;23.00;78.30
22145;DHT22;11238;48.730;11.566;2022-08-05T00:25:57;22.90;77.10
22145;DHT22;11238;48.730;11.566;2022-08-05T00:28:22;22.90;79.50
22145;DHT22;11238;48.730;11.566;2022-08-05T00:30:48;22.90;78.30
22145;DHT22;11238;48.730;11.566;2022-08-05T00:33:17;22.80;78.40
22145;DHT22;11238;48.730;11.566;2022-08-05T00:35:43;22.80;78.50
22145;DHT22;11238;48.730;11.566;2022-08-05T00:38:09;22.70;78.40
22145;DHT22;11238;48.730;11.566;2022-08-05T00:40:49;22.80;79.40
22145;DHT22;11238;48.730;11.566;2022-08-05T00:43:15;22.70;79.80
22145;DHT22;11238;48.730;11.566;2022-08-05T00:45:42;22.70;80.10
22145;DHT22;11238;48.730;11.566;2022-08-05T00:48:09;22.70;79.80
22145;DHT22;11238;48.730;11.566;2022-08-05T00:50:36;22.70;80.00
22145;DHT22;11238;48.730;11.566;2022-08-05T00:53:02;22.60;80.40
22145;DHT22;11238;48.730;11.566;2022-08-05T00:55:28;22.60;80.70
22145;DHT22;11238;48.730;11.566;2022-08-05T00:57:53;22.60;80.90
22145;DHT22;11238;48.730;11.566;2022-08-05T01:00:19;22.60;79.50
22145;DHT22;11238;48.730;11.566;2022-08-05T01:02:45;22.60;78.60
22145;DHT22;11238;48.730;11.566;2022-08-05T01:05:11;22.50;80.80
22145;DHT22;11238;48.730;11.566;2022-08-05T01:07:37;22.50;80.80
22145;DHT22;11238;48.730;11.566;2022-08-05T01:10:05;22.40;81.30
22145;DHT22;11238;48.730;11.566;2022-08-05T01:12:32;22.50;82.60
22145;DHT22;11238;48.730;11.566;2022-08-05T01:15:05;22.40;82.80
22145;DHT22;11238;48.730;11.566;2022-08-05T01:17:42;22.50;81.60
22145;DHT22;11238;48.730;11.566;2022-08-05T01:34:06;22.20;84.60
22145;DHT22;11238;48.730;11.566;2022-08-05T01:36:42;22.20;83.30
22145;DHT22;11238;48.730;11.566;2022-08-05T01:39:10;22.20;84.50
22145;DHT22;11238;48.730;11.566;2022-08-05T01:41:37;22.20;84.40
22145;DHT22;11238;48.730;11.566;2022-08-05T01:44:05;22.10;84.00
22145;DHT22;11238;48.730;11.566;2022-08-05T01:46:32;22.10;83.20
22145;DHT22;11238;48.730;11.566;2022-08-05T01:48:59;22.10;83.40
22145;DHT22;11238;48.730;11.566;2022-08-05T01:51:26;22.10;83.70
22145;DHT22;11238;48.730;11.566;2022-08-05T01:53:54;22.10;83.00
22145;DHT22;11238;48.730;11.566;2022-08-05T01:56:21;22.10;83.90
22145;DHT22;11238;48.730;11.566;2022-08-05T01:58:51;22.10;83.50
22145;DHT22;11238;48.730;11.566;2022-08-05T02:01:18;22.20;84.00
22145;DHT22;11238;48.730;11.566;2022-08-05T02:03:46;22.10;84.90
22145;DHT22;11238;48.730;11.566;2022-08-05T02:06:12;22.00;84.40
22145;DHT22;11238;48.730;11.566;2022-08-05T02:08:39;21.80;85.70
22145;DHT22;11238;48.730;11.566;2022-08-05T02:11:07;21.90;86.00
22145;DHT22;11238;48.730;11.566;2022-08-05T02:13:45;21.90;85.70
22145;DHT22;11238;48.730;11.566;2022-08-05T02:21:53;21.80;85.60
22145;DHT22;11238;48.730;11.566;2022-08-05T02:24:27;21.80;84.60
22145;DHT22;11238;48.730;11.566;2022-08-05T02:27:00;21.70;84.60
22145;DHT22;11238;48.730;11.566;2022-08-05T02:29:28;21.80;87.20
22145;DHT22;11238;48.730;11.566;2022-08-05T02:31:56;21.70;87.50
22145;DHT22;11238;48.730;11.566;2022-08-05T02:34:24;21.70;84.70
22145;DHT22;11238;48.730;11.566;2022-08-05T02:36:53;21.70;85.80
22145;DHT22;11238;48.730;11.566;2022-08-05T02:39:21;21.70;85.80
22145;DHT22;11238;48.730;11.566;2022-08-05T02:41:48;21.60;86.60
22145;DHT22;11238;48.730;11.566;2022-08-05T02:44:16;21.60;88.30
22145;DHT22;11238;48.730;11.566;2022-08-05T02:46:44;21.60;88.40
22145;DHT22;11238;48.730;11.566;2022-08-05T02:49:13;21.50;87.50
22145;DHT22;11238;48.730;11.566;2022-08-05T02:51:40;21.50;87.50
22145;DHT22;11238;48.730;11.566;2022-08-05T02:54:08;21.40;87.40
22145;DHT22;11238;48.730;11.566;2022-08-05T02:56:35;21.50;86.80
22145;DHT22;11238;48.730;11.566;2022-08-05T02:59:02;21.40;87.60
22145;DHT22;11238;48.730;11.566;2022-08-05T03:01:30;21.50;87.60
22145;DHT22;11238;48.730;11.566;2022-08-05T03:04:01;21.40;85.60
22145;DHT22;11238;48.730;11.566;2022-08-05T03:06:28;21.20;88.20
22145;DHT22;11238;48.730;11.566;2022-08-05T03:08:55;21.10;88.10
22145;DHT22;11238;48.730;11.566;2022-08-05T03:11:23;21.10;90.00
22145;DHT22;11238;48.730;11.566;2022-08-05T03:13:50;21.00;89.70
22145;DHT22;11238;48.730;11.566;2022-08-05T03:16:16;20.90;89.40
22145;DHT22;11238;48.730;11.566;2022-08-05T03:18:42;20.90;90.10
22145;DHT22;11238;48.730;11.566;2022-08-05T03:21:08;20.90;90.10
22145;DHT22;11238;48.730;11.566;2022-08-05T03:23:36;20.90;90.30
22145;DHT22;11238;48.730;11.566;2022-08-05T03:26:03;20.90;90.50
22145;DHT22;11238;48.730;11.566;2022-08-05T03:28:30;20.80;89.80
22145;DHT22;11238;48.730;11.566;2022-08-05T03:30:57;20.70;90.80
22145;DHT22;11238;48.730;11.566;2022-08-05T03:33:25;20.70;90.20
22145;DHT22;11238;48.730;11.566;2022-08-05T03:35:53;20.70;90.10
22145;DHT22;11238;48.730;11.566;2022-08-05T03:38:20;20.70;90.50
22145;DHT22;11238;48.730;11.566;2022-08-05T03:40:47;20.60;90.30
22145;DHT22;11238;48.730;11.566;2022-08-05T03:43:15;20.60;91.50
22145;DHT22;11238;48.730;11.566;2022-08-05T03:45:41;20.60;90.70
22145;DHT22;11238;48.730;11.566;2022-08-05T03:48:07;20.50;91.70
22145;DHT22;11238;48.730;11.566;2022-08-05T03:50:50;20.50;90.40
22145;DHT22;11238;48.730;11.566;2022-08-05T03:53:26;20.50;90.80
22145;DHT22;11238;48.730;11.566;2022-08-05T03:56:02;20.40;91.10
22145;DHT22;11238;48.730;11.566;2022-08-05T03:58:31;20.40;91.00
22145;DHT22;11238;48.730;11.566;2022-08-05T04:01:01;20.40;91.00
22145;DHT22;11238;48.730;11.566;2022-08-05T04:03:30;20.30;91.20
22145;DHT22;11238;48.730;11.566;2022-08-05T04:06:01;20.30;92.20
22145;DHT22;11238;48.730;11.566;2022-08-05T04:08:27;20.40;92.60
22145;DHT22;11238;48.730;11.566;2022-08-05T04:10:55;20.40;91.60
22145;DHT22;11238;48.730;11.566;2022-08-05T04:13:22;20.40;91.60
22145;DHT22;11238;48.730;11.566;2022-08-05T04:15:48;20.40;92.00
22145;DHT22;11238;48.730;11.566;2022-08-05T04:18:15;20.30;92.70
22145;DHT22;11238;48.730;11.566;2022-08-05T04:20:41;20.30;92.40
22145;DHT22;11238;48.730;11.566;2022-08-05T04:23:08;20.30;91.60
22145;DHT22;11238;48.730;11.566;2022-08-05T04:25:35;20.40;92.40
22145;DHT22;11238;48.730;11.566;2022-08-05T04:28:01;20.40;92.40
22145;DHT22;11238;48.730;11.566;2022-08-05T04:30:26;20.50;91.60
22145;DHT22;11238;48.730;11.566;2022-08-05T04:32:52;20.30;91.90
22145;DHT22;11238;48.730;11.566;2022-08-05T04:35:18;20.10;93.10
22145;DHT22;11238;48.730;11.566;2022-08-05T04:37:44;20.20;93.50
22145;DHT22;11238;48.730;11.566;2022-08-05T04:40:10;20.20;92.90
22145;DHT22;11238;48.730;11.566;2022-08-05T04:42:36;20.20;92.70
22145;DHT22;11238;48.730;11.566;2022-08-05T04:45:02;20.10;93.40
22145;DHT22;11238;48.730;11.566;2022-08-05T04:47:28;20.20;94.00
22145;DHT22;11238;48.730;11.566;2022-08-05T04:49:54;20.30;94.30
22145;DHT22;11238;48.730;11.566;2022-08-05T04:52:19;20.20;93.90
22145;DHT22;11238;48.730;11.566;2022-08-05T04:54:45;20.10;94.40
22145;DHT22;11238;48.730;11.566;2022-08-05T04:57:11;20.20;94.10
22145;DHT22;11238;48.730;11.566;2022-08-05T04:59:37;20.30;94.50
22145;DHT22;11238;48.730;11.566;2022-08-05T05:02:03;20.40;94.60
22145;DHT22;11238;48.730;11.566;2022-08-05T05:04:29;20.40;93.60
22145;DHT22;11238;48.730;11.566;2022-08-05T05:06:55;20.50;94.30
22145;DHT22;11238;48.730;11.566;2022-08-05T05:09:20;20.60;94.90
22145;DHT22;11238;48.730;11.566;2022-08-05T05:11:46;20.60;94.40
22145;DHT22;11238;48.730;11.566;2022-08-05T05:14:12;20.70;94.90
22145;DHT22;11238;48.730;11.566;2022-08-05T05:16:38;20.70;94.80
22145;DHT22;11238;48.730;11.566;2022-08-05T05:19:03;20.90;93.90
22145;DHT22;11238;48.730;11.566;2022-08-05T05:21:29;20.90;94.80
22145;DHT22;11238;48.730;11.566;2022-08-05T05:23:55;21.00;95.40
22145;DHT22;11238;48.730;11.566;2022-08-05T05:26:21;21.00;95.10
22145;DHT22;11238;48.730;11.566;2022-08-05T05:28:47;21.20;94.70
22145;DHT22;11238;48.730;11.566;2022-08-05T05:31:13;21.40;95.70
22145;DHT22;11238;48.730;11.566;2022-08-05T05:33:38;21.50;94.40
22145;DHT22;11238;48.730;11.566;2022-08-05T05:36:04;21.60;94.40
22145;DHT22;11238;48.730;11.566;2022-08-05T05:38:30;21.70;94.50
22145;DHT22;11238;48.730;11.566;2022-08-05T05:40:56;21.80;94.20
22145;DHT22;11238;48.730;11.566;2022-08-05T05:43:22;21.90;93.90
22145;DHT22;11238;48.730;11.566;2022-08-05T05:45:48;22.00;94.10
22145;DHT22;11238;48.730;11.566;2022-08-05T05:48:14;22.20;94.50
22145;DHT22;11238;48.730;11.566;2022-08-05T05:50:39;22.20;94.10
22145;DHT22;11238;48.730;11.566;2022-08-05T05:53:06;22.30;94.00
22145;DHT22;11238;48.730;11.566;2022-08-05T05:55:36;22.40;93.40
22145;DHT22;11238;48.730;11.566;2022-08-05T05:58:02;22.50;93.30
22145;DHT22;11238;48.730;11.566;2022-08-05T06:00:28;22.60;93.30
22145;DHT22;11238;48.730;11.566;2022-08-05T06:02:53;22.60;93.30
22145;DHT22;11238;48.730;11.566;2022-08-05T06:05:19;22.70;92.90
22145;DHT22;11238;48.730;11.566;2022-08-05T06:07:46;22.80;92.60
22145;DHT22;11238;48.730;11.566;2022-08-05T06:10:12;23.00;92.20
22145;DHT22;11238;48.730;11.566;2022-08-05T06:12:38;23.10;92.40
22145;DHT22;11238;48.730;11.566;2022-08-05T06:15:05;23.10;91.60
22145;DHT22;11238;48.730;11.566;2022-08-05T06:17:31;23.20;91.40
22145;DHT22;11238;48.730;11.566;2022-08-05T06:19:57;23.20;91.30
22145;DHT22;11238;48.730;11.566;2022-08-05T06:22:32;23.20;91.50
22145;DHT22;11238;48.730;11.566;2022-08-05T06:25:00;23.20;91.30
22145;DHT22;11238;48.730;11.566;2022-08-05T06:27:26;23.30;90.90
22145;DHT22;11238;48.730;11.566;2022-08-05T06:29:52;23.30;91.10
22145;DHT22;11238;48.730;11.566;2022-08-05T06:32:18;23.40;91.50
22145;DHT22;11238;48.730;11.566;2022-08-05T06:34:43;23.40;91.40
22145;DHT22;11238;48.730;11.566;2022-08-05T06:37:10;23.40;91.20
22145;DHT22;11238;48.730;11.566;2022-08-05T06:39:35;23.40;90.70
22145;DHT22;11238;48.730;11.566;2022-08-05T06:42:04;23.40;90.30
22145;DHT22;11238;48.730;11.566;2022-08-05T06:44:30;23.40;90.30
22145;DHT22;11238;48.730;11.566;2022-08-05T06:46:56;23.40;90.50
22145;DHT22;11238;48.730;11.566;2022-08-05T06:49:23;23.40;90.10
22145;DHT22;11238;48.730;11.566;2022-08-05T06:51:49;23.50;90.10
22145;DHT22;11238;48.730;11.566;2022-08-05T06:54:15;23.50;90.00
22145;DHT22;11238;48.730;11.566;2022-08-05T06:56:41;23.60;90.00
22145;DHT22;11238;48.730;11.566;2022-08-05T06:59:07;23.70;89.90
22145;DHT22;11238;48.730;11.566;2022-08-05T07:01:33;23.80;89.90
22145;DHT22;11238;48.730;11.566;2022-08-05T07:04:00;23.80;89.90
22145;DHT22;11238;48.730;11.566;2022-08-05T07:06:26;24.00;89.10
22145;DHT22;11238;48.730;11.566;2022-08-05T07:08:52;24.00;88.50
22145;DHT22;11238;48.730;11.566;2022-08-05T07:11:19;24.00;88.70
22145;DHT22;11238;48.730;11.566;2022-08-05T07:13:44;24.00;88.70
22145;DHT22;11238;48.730;11.566;2022-08-05T07:16:29;24.00;88.90
22145;DHT22;11238;48.730;11.566;2022-08-05T07:19:14;24.00;89.30
22145;DHT22;11238;48.730;11.566;2022-08-05T07:21:40;24.00;89.80
22145;DHT22;11238;48.730;11.566;2022-08-05T07:24:06;24.10;89.60
22145;DHT22;11238;48.730;11.566;2022-08-05T07:26:33;24.20;90.00
22145;DHT22;11238;48.730;11.566;2022-08-05T07:28:58;24.20;89.10
22145;DHT22;11238;48.730;11.566;2022-08-05T07:31:24;24.40;89.60
22145;DHT22;11238;48.730;11.566;2022-08-05T07:33:50;24.40;88.30
22145;DHT22;11238;48.730;11.566;2022-08-05T07:36:15;24.40;88.20
22145;DHT22;11238;48.730;11.566;2022-08-05T07:38:41;24.60;88.40
22145;DHT22;11238;48.730;11.566;2022-08-05T07:41:10;24.60;86.90
22145;DHT22;11238;48.730;11.566;2022-08-05T07:43:36;24.80;87.00
22145;DHT22;11238;48.730;11.566;2022-08-05T07:46:02;24.80;86.80
22145;DHT22;11238;48.730;11.566;2022-08-05T07:48:28;24.90;85.80
22145;DHT22;11238;48.730;11.566;2022-08-05T07:50:54;25.00;85.50
22145;DHT22;11238;48.730;11.566;2022-08-05T07:53:20;25.00;85.40
22145;DHT22;11238;48.730;11.566;2022-08-05T07:55:45;25.10;85.00
22145;DHT22;11238;48.730;11.566;2022-08-05T07:58:11;25.20;83.70
22145;DHT22;11238;48.730;11.566;2022-08-05T08:00:37;25.30;84.90
22145;DHT22;11238;48.730;11.566;2022-08-05T08:03:03;25.50;82.50
22145;DHT22;11238;48.730;11.566;2022-08-05T08:05:34;25.60;82.10
22145;DHT22;11238;48.730;11.566;2022-08-05T08:07:59;25.70;80.50
22145;DHT22;11238;48.730;11.566;2022-08-05T08:10:26;25.90;80.80
22145;DHT22;11238;48.730;11.566;2022-08-05T08:12:52;26.10;80.00
22145;DHT22;11238;48.730;11.566;2022-08-05T08:15:17;26.20;78.90
22145;DHT22;11238;48.730;11.566;2022-08-05T08:17:44;26.30;75.60
22145;DHT22;11238;48.730;11.566;2022-08-05T08:20:09;26.50;73.20
22145;DHT22;11238;48.730;11.566;2022-08-05T08:22:36;26.70;72.40
22145;DHT22;11238;48.730;11.566;2022-08-05T08:25:02;26.80;72.80
22145;DHT22;11238;48.730;11.566;2022-08-05T08:27:28;27.00;72.10
22145;DHT22;11238;48.730;11.566;2022-08-05T08:29:54;27.20;71.70
22145;DHT22;11238;48.730;11.566;2022-08-05T08:32:20;27.30;70.20
22145;DHT22;11238;48.730;11.566;2022-08-05T08:34:46;27.40;69.00
22145;DHT22;11238;48.730;11.566;2022-08-05T08:37:12;27.50;67.90
22145;DHT22;11238;48.730;11.566;2022-08-05T08:39:37;27.60;68.00
22145;DHT22;11238;48.730;11.566;2022-08-05T08:42:04;27.70;67.90
22145;DHT22;11238;48.730;11.566;2022-08-05T08:44:31;27.80;68.00
22145;DHT22;11238;48.730;11.566;2022-08-05T08:46:57;27.90;66.60
22145;DHT22;11238;48.730;11.566;2022-08-05T08:49:24;27.90;66.70
22145;DHT22;11238;48.730;11.566;2022-08-05T08:51:58;28.00;66.30
22145;DHT22;11238;48.730;11.566;2022-08-05T08:54:26;28.10;66.80
22145;DHT22;11238;48.730;11.566;2022-08-05T08:56:52;28.20;66.20
22145;DHT22;11238;48.730;11.566;2022-08-05T08:59:19;28.40;66.00
22145;DHT22;11238;48.730;11.566;2022-08-05T09:01:45;28.40;65.60
22145;DHT22;11238;48.730;11.566;2022-08-05T09:04:12;28.50;64.10
22145;DHT22;11238;48.730;11.566;2022-08-05T09:06:38;28.50;64.50
22145;DHT22;11238;48.730;11.566;2022-08-05T09:09:05;28.60;63.80
22145;DHT22;11238;48.730;11.566;2022-08-05T09:11:35;28.70;64.40
22145;DHT22;11238;48.730;11.566;2022-08-05T09:14:02;28.80;64.00
22145;DHT22;11238;48.730;11.566;2022-08-05T09:16:28;28.90;64.20
22145;DHT22;11238;48.730;11.566;2022-08-05T09:18:54;28.90;62.80
22145;DHT22;11238;48.730;11.566;2022-08-05T09:21:20;28.90;63.10
22145;DHT22;11238;48.730;11.566;2022-08-05T09:24:03;29.00;62.70
22145;DHT22;11238;48.730;11.566;2022-08-05T09:26:30;29.00;62.20
22145;DHT22;11238;48.730;11.566;2022-08-05T09:29:03;29.10;60.40
22145;DHT22;11238;48.730;11.566;2022-08-05T09:31:30;29.20;61.30
22145;DHT22;11238;48.730;11.566;2022-08-05T09:34:04;29.20;59.30
22145;DHT22;11238;48.730;11.566;2022-08-05T09:36:46;29.20;59.40
22145;DHT22;11238;48.730;11.566;2022-08-05T09:39:16;29.30;60.20
22145;DHT22;11238;48.730;11.566;2022-08-05T09:41:59;29.40;59.20
22145;DHT22;11238;48.730;11.566;2022-08-05T09:44:44;29.50;59.60
22145;DHT22;11238;48.730;11.566;2022-08-05T09:47:16;29.60;58.80
22145;DHT22;11238;48.730;11.566;2022-08-05T09:49:48;29.70;59.80
22145;DHT22;11238;48.730;11.566;2022-08-05T09:52:31;29.80;58.90
22145;DHT22;11238;48.730;11.566;2022-08-05T09:55:02;29.80;59.10
22145;DHT22;11238;48.730;11.566;2022-08-05T09:57:30;29.90;58.80
22145;DHT22;11238;48.730;11.566;2022-08-05T10:00:02;30.00;59.00
22145;DHT22;11238;48.730;11.566;2022-08-05T10:02:35;30.10;58.50
22145;DHT22;11238;48.730;11.566;2022-08-05T10:05:23;30.20;59.50
22145;DHT22;11238;48.730;11.566;2022-08-05T10:07:51;30.40;59.10
22145;DHT22;11238;48.730;11.566;2022-08-05T10:10:23;30.50;58.00
22145;DHT22;11238;48.730;11.566;2022-08-05T10:12:54;30.60;57.80
22145;DHT22;11238;48.730;11.566;2022-08-05T10:15:21;30.60;57.20
22145;DHT22;11238;48.730;11.566;2022-08-05T10:18:10;30.80;58.50
22145;DHT22;11238;48.730;11.566;2022-08-05T10:20:48;30.90;57.90
22145;DHT22;11238;48.730;11.566;2022-08-05T10:23:20;30.90;56.50
22145;DHT22;11238;48.730;11.566;2022-08-05T10:25:47;30.90;56.70
22145;DHT22;11238;48.730;11.566;2022-08-05T10:28:12;30.90;55.80
22145;DHT22;11238;48.730;11.566;2022-08-05T10:30:38;31.00;56.40
22145;DHT22;11238;48.730;11.566;2022-08-05T10:33:05;31.00;56.00
22145;DHT22;11238;48.730;11.566;2022-08-05T10:35:32;31.10;55.30
22145;DHT22;11238;48.730;11.566;2022-08-05T10:37:58;31.10;54.60
22145;DHT22;11238;48.730;11.566;2022-08-05T10:40:32;31.20;54.60
22145;DHT22;11238;48.730;11.566;2022-08-05T10:46:03;31.40;53.40
22145;DHT22;11238;48.730;11.566;2022-08-05T10:51:03;31.40;53.50
22145;DHT22;11238;48.730;11.566;2022-08-05T10:53:34;31.40;52.50
22145;DHT22;11238;48.730;11.566;2022-08-05T10:56:09;31.60;55.10
22145;DHT22;11238;48.730;11.566;2022-08-05T10:59:07;31.80;54.50
22145;DHT22;11238;48.730;11.566;2022-08-05T11:01:37;31.90;53.90
22145;DHT22;11238;48.730;11.566;2022-08-05T11:04:14;31.90;52.70
22145;DHT22;11238;48.730;11.566;2022-08-05T11:09:26;32.10;52.60
22145;DHT22;11238;48.730;11.566;2022-08-05T11:11:53;32.20;52.80
22145;DHT22;11238;48.730;11.566;2022-08-05T11:14:27;32.40;52.60
22145;DHT22;11238;48.730;11.566;2022-08-05T11:17:27;32.50;52.60
22145;DHT22;11238;48.730;11.566;2022-08-05T11:19:55;32.60;53.30
22145;DHT22;11238;48.730;11.566;2022-08-05T11:22:45;32.80;53.10
22145;DHT22;11238;48.730;11.566;2022-08-05T11:25:35;32.80;52.10
22145;DHT22;11238;48.730;11.566;2022-08-05T11:33:38;33.20;51.70
22145;DHT22;11238;48.730;11.566;2022-08-05T11:36:06;33.10;51.10
22145;DHT22;11238;48.730;11.566;2022-08-05T11:41:22;33.00;50.10
22145;DHT22;11238;48.730;11.566;2022-08-05T11:46:29;33.30;49.90
22145;DHT22;11238;48.730;11.566;2022-08-05T11:48:56;33.30;49.20
22145;DHT22;11238;48.730;11.566;2022-08-05T11:51:23;33.30;50.00
22145;DHT22;11238;48.730;11.566;2022-08-05T11:53:49;33.40;50.00
22145;DHT22;11238;48.730;11.566;2022-08-05T11:56:15;33.50;50.90
22145;DHT22;11238;48.730;11.566;2022-08-05T11:58:43;33.60;48.70
22145;DHT22;11238;48.730;11.566;2022-08-05T12:01:20;33.60;48.10
22145;DHT22;11238;48.730;11.566;2022-08-05T12:03:55;33.60;49.00
22145;DHT22;11238;48.730;11.566;2022-08-05T12:06:23;33.60;48.70
22145;DHT22;11238;48.730;11.566;2022-08-05T12:08:57;33.80;51.50
22145;DHT22;11238;48.730;11.566;2022-08-05T12:11:28;33.90;48.80
22145;DHT22;11238;48.730;11.566;2022-08-05T12:13:56;33.90;47.10
22145;DHT22;11238;48.730;11.566;2022-08-05T12:16:24;33.80;46.60
22145;DHT22;11238;48.730;11.566;2022-08-05T12:18:50;33.80;48.60
22145;DHT22;11238;48.730;11.566;2022-08-05T12:21:18;33.90;48.00
22145;DHT22;11238;48.730;11.566;2022-08-05T12:24:11;34.00;46.90
22145;DHT22;11238;48.730;11.566;2022-08-05T12:27:00;33.90;46.50
22145;DHT22;11238;48.730;11.566;2022-08-05T12:29:26;34.00;46.00
22145;DHT22;11238;48.730;11.566;2022-08-05T12:31:58;33.90;45.40
22145;DHT22;11238;48.730;11.566;2022-08-05T12:34:30;34.00;48.30
22145;DHT22;11238;48.730;11.566;2022-08-05T12:36:58;34.20;47.20
22145;DHT22;11238;48.730;11.566;2022-08-05T12:39:26;34.40;47.20
22145;DHT22;11238;48.730;11.566;2022-08-05T12:41:58;34.60;47.10
22145;DHT22;11238;48.730;11.566;2022-08-05T12:44:25;34.70;46.90
22145;DHT22;11238;48.730;11.566;2022-08-05T12:46:53;34.90;47.20
22145;DHT22;11238;48.730;11.566;2022-08-05T12:49:20;35.00;46.20
22145;DHT22;11238;48.730;11.566;2022-08-05T12:51:57;35.00;45.70
22145;DHT22;11238;48.730;11.566;2022-08-05T12:54:31;35.10;47.80
22145;DHT22;11238;48.730;11.566;2022-08-05T12:57:03;35.10;46.20
22145;DHT22;11238;48.730;11.566;2022-08-05T13:02:12;35.00;46.80
22145;DHT22;11238;48.730;11.566;2022-08-05T13:04:42;35.00;46.00
22145;DHT22;11238;48.730;11.566;2022-08-05T13:07:10;35.10;45.80
22145;DHT22;11238;48.730;11.566;2022-08-05T13:09:40;35.10;45.10
22145;DHT22;11238;48.730;11.566;2022-08-05T13:12:17;34.90;43.90
22145;DHT22;11238;48.730;11.566;2022-08-05T13:14:51;35.00;44.40
22145;DHT22;11238;48.730;11.566;2022-08-05T13:17:23;35.00;47.40
22145;DHT22;11238;48.730;11.566;2022-08-05T13:22:33;35.20;44.10
22145;DHT22;11238;48.730;11.566;2022-08-05T13:25:02;35.40;43.40
22145;DHT22;11238;48.730;11.566;2022-08-05T13:27:30;35.40;43.10
22145;DHT22;11238;48.730;11.566;2022-08-05T13:29:57;35.50;45.20
22145;DHT22;11238;48.730;11.566;2022-08-05T13:32:23;35.70;42.70
22145;DHT22;11238;48.730;11.566;2022-08-05T13:34:49;35.60;42.10
22145;DHT22;11238;48.730;11.566;2022-08-05T13:37:20;35.80;43.40
22145;DHT22;11238;48.730;11.566;2022-08-05T13:39:49;35.80;43.10
22145;DHT22;11238;48.730;11.566;2022-08-05T13:42:15;35.80;42.30
22145;DHT22;11238;48.730;11.566;2022-08-05T13:44:42;35.80;41.80
22145;DHT22;11238;48.730;11.566;2022-08-05T13:47:08;35.80;43.30
22145;DHT22;11238;48.730;11.566;2022-08-05T13:49:33;36.00;43.00
22145;DHT22;11238;48.730;11.566;2022-08-05T13:52:18;36.00;41.40
22145;DHT22;11238;48.730;11.566;2022-08-05T13:54:45;35.90;41.50
22145;DHT22;11238;48.730;11.566;2022-08-05T13:57:11;36.00;41.80
22145;DHT22;11238;48.730;11.566;2022-08-05T13:59:39;36.00;42.30
22145;DHT22;11238;48.730;11.566;2022-08-05T14:02:05;36.10;41.50
22145;DHT22;11238;48.730;11.566;2022-08-05T14:04:34;36.30;43.40
22145;DHT22;11238;48.730;11.566;2022-08-05T14:07:20;36.20;41.90
22145;DHT22;11238;48.730;11.566;2022-08-05T14:09:48;36.20;41.50
22145;DHT22;11238;48.730;11.566;2022-08-05T14:12:13;36.20;40.10
22145;DHT22;11238;48.730;11.566;2022-08-05T14:14:40;36.10;40.30
22145;DHT22;11238;48.730;11.566;2022-08-05T14:17:05;36.00;40.40
22145;DHT22;11238;48.730;11.566;2022-08-05T14:19:32;36.00;40.20
22145;DHT22;11238;48.730;11.566;2022-08-05T14:21:58;35.90;41.50
22145;DHT22;11238;48.730;11.566;2022-08-05T14:24:24;36.00;41.00
22145;DHT22;11238;48.730;11.566;2022-08-05T14:26:50;36.00;41.70
22145;DHT22;11238;48.730;11.566;2022-08-05T14:29:16;35.90;41.30
22145;DHT22;11238;48.730;11.566;2022-08-05T14:31:45;35.80;41.00
22145;DHT22;11238;48.730;11.566;2022-08-05T14:34:11;35.80;40.70
22145;DHT22;11238;48.730;11.566;2022-08-05T14:36:37;35.80;42.10
22145;DHT22;11238;48.730;11.566;2022-08-05T14:39:03;35.80;40.10
22145;DHT22;11238;48.730;11.566;2022-08-05T14:41:33;35.90;41.90
22145;DHT22;11238;48.730;11.566;2022-08-05T14:43:59;36.00;41.80
22145;DHT22;11238;48.730;11.566;2022-08-05T14:46:27;36.10;41.00
22145;DHT22;11238;48.730;11.566;2022-08-05T14:48:53;36.10;41.00
22145;DHT22;11238;48.730;11.566;2022-08-05T14:51:19;36.20;40.10
22145;DHT22;11238;48.730;11.566;2022-08-05T14:53:45;36.20;40.50
22145;DHT22;11238;48.730;11.566;2022-08-05T14:56:12;35.90;39.70
22145;DHT22;11238;48.730;11.566;2022-08-05T14:58:38;36.10;41.00
22145;DHT22;11238;48.730;11.566;2022-08-05T15:01:03;35.90;39.80
22145;DHT22;11238;48.730;11.566;2022-08-05T15:03:30;36.10;40.90
22145;DHT22;11238;48.730;11.566;2022-08-05T15:05:56;36.10;40.40
22145;DHT22;11238;48.730;11.566;2022-08-05T15:08:22;36.20;40.60
22145;DHT22;11238;48.730;11.566;2022-08-05T15:10:49;36.10;39.90
22145;DHT22;11238;48.730;11.566;2022-08-05T15:13:15;36.10;40.60
22145;DHT22;11238;48.730;11.566;2022-08-05T15:15:40;36.10;39.50
22145;DHT22;11238;48.730;11.566;2022-08-05T15:18:06;36.20;41.00
22145;DHT22;11238;48.730;11.566;2022-08-05T15:20:32;36.30;41.00
22145;DHT22;11238;48.730;11.566;2022-08-05T15:23:03;36.40;41.50
22145;DHT22;11238;48.730;11.566;2022-08-05T15:25:29;36.50;41.40
22145;DHT22;11238;48.730;11.566;2022-08-05T15:27:55;36.50;40.90
22145;DHT22;11238;48.730;11.566;2022-08-05T15:30:20;36.40;39.50
22145;DHT22;11238;48.730;11.566;2022-08-05T15:32:46;36.50;40.40
22145;DHT22;11238;48.730;11.566;2022-08-05T15:35:12;36.40;40.00
22145;DHT22;11238;48.730;11.566;2022-08-05T15:37:38;36.50;40.80
22145;DHT22;11238;48.730;11.566;2022-08-05T15:40:04;36.40;40.50
22145;DHT22;11238;48.730;11.566;2022-08-05T15:42:30;36.40;40.60
22145;DHT22;11238;48.730;11.566;2022-08-05T15:44:58;36.30;40.90
22145;DHT22;11238;48.730;11.566;2022-08-05T15:47:23;36.20;39.90
22145;DHT22;11238;48.730;11.566;2022-08-05T15:49:50;36.00;40.80
22145;DHT22;11238;48.730;11.566;2022-08-05T15:52:20;36.00;41.20
22145;DHT22;11238;48.730;11.566;2022-08-05T15:54:46;35.90;41.10
22145;DHT22;11238;48.730;11.566;2022-08-05T15:57:13;36.10;41.30
22145;DHT22;11238;48.730;11.566;2022-08-05T15:59:39;36.00;40.20
22145;DHT22;11238;48.730;11.566;2022-08-05T16:02:06;35.90;39.80
22145;DHT22;11238;48.730;11.566;2022-08-05T16:04:33;35.90;40.30
22145;DHT22;11238;48.730;11.566;2022-08-05T16:06:59;35.90;40.30